Carmel, Indiana
Current Conditions -  °F | °C
As of 5:35 PM on Wednesday 22 Oct 2014 (Local Time) from KTYQ Reporting Station
Haze Haze  
Wind Chill: 57°   Ceiling: 500
Heat Index: 57°   Visibility: 0.75mi
Dew Point: 38°   Wind: 3mph
Humidity: 49%   Direction: 50°NE
Pressure: 30.27"   Gusts: NA
Location:  39.98°N, 86.11°W
Report Text: KTYQ 222135Z AUTO 05003KT 3/4SM HZ VV005 14/03 A3027 RMK AO2 VIS 1/2V5 T01400034
Loading
Personal Weather Stations






























Interactive Weather Map
Tropical Storm Tracking
New forecast layout! Learn more

10-Day Weather Forecast

Advertisements
Track Severe Weather on mobile